Time;durP1;ratioP1;P1;durP2;ratioP2;P2;SDS_P1;SDS_P2;PMS_P1;PMS_P2;Temp;Humidity;BMP_temperature;BMP_pressure;BME280_temperature;BME280_humidity;BME280_pressure;Samples;Min_cycle;Max_cycle;Signal;HPM_P1;HPM_P2
2023/09/06 00:02:17;;;;;;;3.42;2.10;;;17.40;82.50;;;;;;934162;152;27364;-76
2023/09/06 00:04:44;;;;;;;2.22;2.02;;;17.40;83.10;;;;;;930845;152;27424;-76
2023/09/06 00:07:10;;;;;;;2.33;2.20;;;17.30;83.60;;;;;;931698;149;27272;-76
2023/09/06 00:09:37;;;;;;;2.00;1.90;;;17.30;84.10;;;;;;931979;151;27285;-76
2023/09/06 00:12:04;;;;;;;2.40;2.20;;;17.30;84.50;;;;;;932961;149;27334;-73
2023/09/06 00:14:30;;;;;;;3.17;2.30;;;17.30;84.80;;;;;;931771;153;28424;-74
2023/09/06 00:16:57;;;;;;;2.10;1.90;;;17.30;85.10;;;;;;932537;149;27305;-73
2023/09/06 00:19:24;;;;;;;2.20;2.00;;;17.30;85.40;;;;;;932254;149;27733;-76
2023/09/06 00:21:50;;;;;;;2.40;2.10;;;17.30;85.60;;;;;;932129;153;27334;-76
2023/09/06 00:24:17;;;;;;;3.27;2.05;;;17.30;85.80;;;;;;937818;149;27445;-76
2023/09/06 00:26:43;;;;;;;2.60;2.40;;;17.30;86.00;;;;;;944720;148;27374;-76
2023/09/06 00:29:10;;;;;;;3.05;2.02;;;17.30;86.30;;;;;;943278;149;27353;-76
2023/09/06 00:31:36;;;;;;;3.35;2.05;;;17.20;86.60;;;;;;943494;150;27420;-76
2023/09/06 00:34:03;;;;;;;4.03;2.20;;;17.20;86.90;;;;;;942746;148;27366;-76
2023/09/06 00:36:32;;;;;;;2.58;2.17;;;17.20;87.20;;;;;;942696;151;27391;-76
2023/09/06 00:38:59;;;;;;;2.22;2.02;;;17.10;87.50;;;;;;943222;148;27590;-76
2023/09/06 00:41:25;;;;;;;3.42;2.30;;;17.10;87.70;;;;;;943080;150;27378;-76
2023/09/06 00:43:52;;;;;;;2.02;1.82;;;17.10;88.00;;;;;;945093;151;27324;-76
2023/09/06 00:46:21;;;;;;;2.47;2.25;;;17.00;88.30;;;;;;944723;148;27666;-74
2023/09/06 00:48:50;;;;;;;2.02;1.82;;;17.00;88.70;;;;;;944183;150;27335;-74
2023/09/06 00:51:17;;;;;;;2.00;1.90;;;16.90;89.10;;;;;;945610;150;27467;-76
2023/09/06 00:53:44;;;;;;;2.30;2.10;;;16.90;89.40;;;;;;935042;149;27341;-73
2023/09/06 00:56:10;;;;;;;2.00;1.90;;;16.80;89.70;;;;;;973203;143;27293;-73
2023/09/06 00:58:38;;;;;;;2.50;2.30;;;16.80;90.10;;;;;;971969;143;27305;-75
2023/09/06 01:01:06;;;;;;;2.22;1.90;;;16.80;90.30;;;;;;935698;149;27341;-76
2023/09/06 01:03:30;;;;;;;2.20;1.98;;;16.70;90.50;;;;;;973214;143;27446;-75
2023/09/06 01:06:05;;;;;;;3.15;2.33;;;16.70;90.80;;;;;;972653;143;27403;-74
2023/09/06 01:08:46;;;;;;;1.67;1.57;;;16.60;91.00;;;;;;971594;143;27326;-74
2023/09/06 01:11:18;;;;;;;2.30;2.10;;;16.60;91.10;;;;;;973599;143;27460;-74
2023/09/06 01:13:40;;;;;;;2.52;2.30;;;16.60;91.30;;;;;;973988;143;27438;-73
2023/09/06 01:16:09;;;;;;;5.40;2.12;;;16.50;91.70;;;;;;975537;143;27660;-74
2023/09/06 01:18:35;;;;;;;2.65;2.10;;;16.50;91.80;;;;;;973808;143;27310;-74
2023/09/06 01:21:02;;;;;;;2.08;1.92;;;16.50;92.10;;;;;;973549;143;27426;-73
2023/09/06 01:23:40;;;;;;;2.67;2.10;;;16.40;92.40;;;;;;970573;143;27307;-74
2023/09/06 01:26:07;;;;;;;2.47;2.27;;;16.40;92.80;;;;;;956145;143;27350;-72
2023/09/06 01:28:34;;;;;;;2.40;2.20;;;16.40;93.10;;;;;;954936;145;27302;-74
2023/09/06 01:31:00;;;;;;;2.37;2.17;;;16.30;93.60;;;;;;955663;145;27342;-72
2023/09/06 01:33:29;;;;;;;4.10;2.37;;;16.30;94.00;;;;;;954460;145;27334;-73
2023/09/06 01:35:53;;;;;;;2.50;2.37;;;16.30;94.50;;;;;;953808;145;27348;-74
2023/09/06 01:38:20;;;;;;;2.47;2.27;;;16.30;94.90;;;;;;955219;145;27336;-73
2023/09/06 01:40:47;;;;;;;4.12;2.75;;;16.30;95.20;;;;;;953772;145;27384;-75
2023/09/06 01:43:13;;;;;;;3.12;2.52;;;16.30;95.50;;;;;;921069;151;27443;-72
2023/09/06 01:45:50;;;;;;;3.20;2.83;;;16.30;95.90;;;;;;933623;148;27250;-72
2023/09/06 01:48:13;;;;;;;2.58;2.37;;;16.30;96.20;;;;;;933610;148;27313;-73
2023/09/06 01:50:41;;;;;;;3.55;2.60;;;16.40;96.60;;;;;;925708;151;27342;-72
2023/09/06 01:53:06;;;;;;;2.92;2.72;;;16.40;96.90;;;;;;935345;148;27379;-76
2023/09/06 01:55:32;;;;;;;5.17;2.67;;;16.40;97.20;;;;;;936202;148;27356;-75
2023/09/06 01:57:59;;;;;;;2.52;2.33;;;16.40;97.40;;;;;;937820;149;27394;-73
2023/09/06 02:00:29;;;;;;;2.77;2.58;;;16.40;97.60;;;;;;935053;149;27298;-75
2023/09/06 02:02:52;;;;;;;3.10;2.90;;;16.40;97.90;;;;;;936609;149;27354;-74
2023/09/06 02:05:19;;;;;;;5.12;3.12;;;16.40;98.20;;;;;;936371;149;27393;-73
2023/09/06 02:07:45;;;;;;;4.75;3.05;;;16.40;98.50;;;;;;936239;149;27344;-73
2023/09/06 02:10:12;;;;;;;4.28;3.37;;;16.40;98.80;;;;;;918331;151;27382;-73
2023/09/06 02:12:38;;;;;;;6.20;3.35;;;16.40;99.10;;;;;;936461;149;27362;-75
2023/09/06 02:15:08;;;;;;;5.17;3.08;;;16.40;99.40;;;;;;936087;149;27387;-73
2023/09/06 02:17:37;;;;;;;3.27;3.07;;;16.50;99.70;;;;;;936823;149;27452;-72
2023/09/06 02:20:13;;;;;;;3.27;2.98;;;16.50;99.90;;;;;;937019;149;27436;-74
2023/09/06 02:22:39;;;;;;;3.08;2.87;;;16.50;99.90;;;;;;935609;149;27406;-72
2023/09/06 02:25:05;;;;;;;3.40;3.10;;;16.50;99.90;;;;;;934835;149;27391;-73
2023/09/06 02:27:33;;;;;;;3.05;2.85;;;16.50;99.90;;;;;;937848;149;27338;-74
2023/09/06 02:29:58;;;;;;;3.98;2.75;;;16.50;99.90;;;;;;934860;149;27346;-73
2023/09/06 02:32:26;;;;;;;3.42;3.02;;;16.50;99.90;;;;;;936298;149;27732;-72
2023/09/06 02:34:52;;;;;;;3.33;2.98;;;16.40;99.90;;;;;;935826;149;27422;-73
2023/09/06 02:37:18;;;;;;;3.33;3.02;;;16.50;99.90;;;;;;937242;149;27360;-72
2023/09/06 02:39:45;;;;;;;3.40;3.10;;;16.40;99.90;;;;;;936891;149;27439;-74
2023/09/06 02:42:11;;;;;;;3.20;2.92;;;16.40;99.90;;;;;;935889;149;27395;-75
2023/09/06 02:44:38;;;;;;;2.92;2.72;;;16.40;99.90;;;;;;936695;149;27479;-72
2023/09/06 02:47:09;;;;;;;3.23;2.70;;;16.40;99.90;;;;;;936804;149;27343;-73
2023/09/06 02:49:32;;;;;;;2.70;2.50;;;16.40;99.90;;;;;;935042;149;27327;-73
2023/09/06 02:51:58;;;;;;;3.20;3.00;;;16.40;99.90;;;;;;935220;149;27434;-74
2023/09/06 02:54:24;;;;;;;3.85;2.90;;;16.30;99.90;;;;;;930503;150;27385;-73
2023/09/06 02:56:52;;;;;;;3.20;2.70;;;16.30;99.90;;;;;;967983;144;27317;-72
2023/09/06 02:59:19;;;;;;;2.67;2.47;;;16.30;99.90;;;;;;968244;144;27740;-73
2023/09/06 03:01:44;;;;;;;3.17;2.97;;;16.20;99.90;;;;;;967498;144;27410;-73
2023/09/06 03:04:14;;;;;;;2.87;2.67;;;16.20;99.90;;;;;;968923;144;27869;-75
2023/09/06 03:06:43;;;;;;;2.87;2.67;;;16.20;99.90;;;;;;967581;144;27778;-75
2023/09/06 03:09:07;;;;;;;7.53;3.00;;;16.20;99.90;;;;;;967756;144;27302;-75
2023/09/06 03:11:33;;;;;;;2.85;2.65;;;16.20;99.90;;;;;;969234;144;27308;-75
2023/09/06 03:14:02;;;;;;;3.25;2.92;;;16.10;99.90;;;;;;969564;144;27363;-75
2023/09/06 03:16:27;;;;;;;5.25;4.00;;;16.10;99.90;;;;;;967390;144;27317;-75
2023/09/06 03:18:54;;;;;;;2.87;2.45;;;16.10;99.90;;;;;;966591;144;27313;-75
2023/09/06 03:21:21;;;;;;;4.35;2.67;;;16.10;99.90;;;;;;967484;144;27331;-75
2023/09/06 03:23:46;;;;;;;2.70;2.50;;;16.00;99.90;;;;;;964436;144;27326;-75
2023/09/06 03:26:13;;;;;;;2.72;2.52;;;16.00;99.90;;;;;;964103;144;27396;-75
2023/09/06 03:28:42;;;;;;;3.00;2.80;;;16.00;99.90;;;;;;953460;145;27996;-75
2023/09/06 03:31:08;;;;;;;3.10;2.85;;;15.90;99.90;;;;;;952313;145;27313;-75
2023/09/06 03:33:35;;;;;;;2.90;2.33;;;15.80;99.90;;;;;;953450;145;27429;-75
2023/09/06 03:35:59;;;;;;;2.67;2.47;;;15.80;99.90;;;;;;918854;151;27448;-75
2023/09/06 03:38:26;;;;;;;2.60;2.40;;;15.80;99.90;;;;;;935180;148;27455;-75
2023/09/06 03:40:53;;;;;;;3.93;2.80;;;15.80;99.90;;;;;;936940;149;27298;-75
2023/09/06 03:43:19;;;;;;;2.80;2.60;;;15.70;99.90;;;;;;937184;149;27503;-75
2023/09/06 03:45:50;;;;;;;2.57;2.37;;;15.70;99.90;;;;;;938556;149;27362;-75
2023/09/06 03:48:17;;;;;;;2.42;2.22;;;15.60;99.90;;;;;;936333;149;27446;-75
2023/09/06 03:50:41;;;;;;;2.37;2.07;;;15.60;99.90;;;;;;936737;149;27455;-75
2023/09/06 03:53:08;;;;;;;3.30;2.37;;;15.50;99.90;;;;;;936771;149;27808;-75
2023/09/06 03:55:35;;;;;;;2.40;2.20;;;15.50;99.90;;;;;;937352;149;27334;-75
2023/09/06 03:58:07;;;;;;;2.92;2.65;;;15.40;99.90;;;;;;937472;149;27378;-75
2023/09/06 04:00:31;;;;;;;2.67;2.20;;;15.40;99.90;;;;;;935591;149;27415;-75
2023/09/06 04:02:54;;;;;;;2.52;2.20;;;15.30;99.90;;;;;;935772;149;27351;-75
2023/09/06 04:05:25;;;;;;;2.73;2.23;;;15.30;99.90;;;;;;936201;149;27361;-75
2023/09/06 04:07:50;;;;;;;2.20;2.00;;;15.30;99.90;;;;;;935914;149;27388;-75
2023/09/06 04:10:17;;;;;;;2.30;2.20;;;15.20;99.90;;;;;;935150;149;27865;-75
2023/09/06 04:12:46;;;;;;;2.63;2.37;;;15.20;99.90;;;;;;936776;149;27432;-75
2023/09/06 04:15:15;;;;;;;2.57;2.37;;;15.20;99.90;;;;;;938615;149;27334;-74
2023/09/06 04:17:42;;;;;;;2.47;2.30;;;15.10;99.90;;;;;;919451;151;27957;-75
2023/09/06 04:20:23;;;;;;;2.40;2.20;;;15.10;99.90;;;;;;934976;149;27365;-75
2023/09/06 04:22:47;;;;;;;3.17;2.60;;;15.00;99.90;;;;;;935920;149;27396;-75
2023/09/06 04:25:22;;;;;;;3.90;2.33;;;15.00;99.90;;;;;;937088;149;27474;-75
2023/09/06 04:27:45;;;;;;;2.50;2.30;;;15.00;99.90;;;;;;936065;149;27368;-75
2023/09/06 04:30:13;;;;;;;3.73;2.47;;;15.00;99.90;;;;;;973488;143;27356;-75
2023/09/06 04:32:39;;;;;;;2.83;2.63;;;14.90;99.90;;;;;;974946;143;27380;-75
2023/09/06 04:35:06;;;;;;;6.03;3.00;;;14.90;99.90;;;;;;974174;143;27337;-75
2023/09/06 04:37:32;;;;;;;2.98;2.67;;;14.90;99.90;;;;;;971323;143;28375;-75
2023/09/06 04:39:59;;;;;;;3.50;2.90;;;14.80;99.90;;;;;;971370;143;27309;-75
2023/09/06 04:42:25;;;;;;;2.83;2.60;;;14.80;99.90;;;;;;973260;143;27336;-75
2023/09/06 04:44:52;;;;;;;3.10;2.90;;;14.80;99.90;;;;;;972077;143;27431;-75
2023/09/06 04:47:18;;;;;;;3.10;2.90;;;14.80;99.90;;;;;;975575;143;27439;-75
2023/09/06 04:49:45;;;;;;;3.73;2.77;;;14.80;99.90;;;;;;970848;143;27352;-75
2023/09/06 04:52:12;;;;;;;3.50;2.90;;;14.80;99.90;;;;;;970735;143;27370;-75
2023/09/06 04:54:38;;;;;;;3.50;2.47;;;14.80;99.90;;;;;;973397;143;27853;-75
2023/09/06 04:57:05;;;;;;;2.73;2.53;;;14.80;99.90;;;;;;974446;143;27457;-75
2023/09/06 04:59:33;;;;;;;5.40;2.87;;;14.90;99.90;;;;;;974244;143;28288;-75
2023/09/06 05:01:58;;;;;;;2.83;2.40;;;14.90;99.90;;;;;;973784;143;27315;-75
2023/09/06 05:04:24;;;;;;;2.47;2.37;;;14.90;99.90;;;;;;971661;143;27374;-75
2023/09/06 05:06:51;;;;;;;4.27;2.93;;;15.00;99.90;;;;;;973231;143;27286;-75
2023/09/06 05:09:19;;;;;;;3.20;2.83;;;15.00;99.90;;;;;;972854;143;27384;-75
2023/09/06 05:11:44;;;;;;;2.97;2.77;;;15.10;99.90;;;;;;972558;143;27292;-75
2023/09/06 05:14:11;;;;;;;3.05;2.85;;;15.20;99.90;;;;;;969472;143;27305;-75
2023/09/06 05:16:37;;;;;;;3.52;3.22;;;15.50;99.90;;;;;;974497;143;27412;-75
2023/09/06 05:19:04;;;;;;;2.98;2.77;;;15.80;99.90;;;;;;971132;143;27342;-75
2023/09/06 05:21:31;;;;;;;5.28;3.35;;;16.20;99.90;;;;;;973716;143;27435;-76
2023/09/06 05:23:57;;;;;;;3.30;2.92;;;16.60;99.90;;;;;;974482;143;27757;-75
2023/09/06 05:26:24;;;;;;;3.42;3.00;;;17.10;99.90;;;;;;974839;143;27543;-75
2023/09/06 05:28:50;;;;;;;3.10;2.90;;;17.60;99.90;;;;;;973911;143;27452;-75
2023/09/06 05:31:18;;;;;;;3.80;3.37;;;18.20;99.90;;;;;;971503;144;27444;-75
2023/09/06 05:33:44;;;;;;;4.70;3.95;;;18.80;99.90;;;;;;970823;144;27319;-75
2023/09/06 05:36:10;;;;;;;9.23;8.43;;;19.40;99.90;;;;;;970996;144;27305;-75
2023/09/06 05:38:37;;;;;;;9.93;9.13;;;20.00;99.90;;;;;;935499;149;27439;-75
2023/09/06 05:41:03;;;;;;;11.85;10.50;;;20.60;99.90;;;;;;935622;149;27366;-75
2023/09/06 05:43:30;;;;;;;9.38;8.48;;;21.20;99.90;;;;;;935626;149;27375;-75
2023/09/06 05:45:56;;;;;;;5.35;4.87;;;21.80;99.90;;;;;;934523;149;27337;-75
2023/09/06 05:48:23;;;;;;;3.62;3.33;;;22.50;99.90;;;;;;937806;148;27328;-75
2023/09/06 05:50:50;;;;;;;2.60;2.40;;;23.10;99.90;;;;;;940245;148;27433;-77
2023/09/06 05:53:16;;;;;;;2.67;2.47;;;23.70;99.90;;;;;;939399;148;27343;-75
2023/09/06 05:55:43;;;;;;;2.65;2.52;;;24.30;99.00;;;;;;939429;148;27979;-75
2023/09/06 05:58:10;;;;;;;2.87;2.67;;;24.90;96.90;;;;;;934362;149;27353;-76
2023/09/06 06:00:36;;;;;;;2.72;2.45;;;25.50;94.60;;;;;;948708;147;27338;-75
2023/09/06 06:03:03;;;;;;;3.22;2.72;;;26.10;92.00;;;;;;950007;147;27928;-76
2023/09/06 06:05:29;;;;;;;3.20;2.90;;;26.70;90.30;;;;;;933720;149;27378;-76
2023/09/06 06:07:57;;;;;;;2.98;2.67;;;27.30;87.90;;;;;;949409;147;27361;-75
2023/09/06 06:10:22;;;;;;;2.98;2.35;;;27.90;84.40;;;;;;952483;147;27353;-76
2023/09/06 06:12:49;;;;;;;2.92;2.72;;;28.50;81.70;;;;;;952068;147;29171;-76
2023/09/06 06:15:16;;;;;;;2.95;2.35;;;29.10;79.20;;;;;;952547;147;27361;-76
2023/09/06 06:17:42;;;;;;;3.17;2.75;;;29.70;76.90;;;;;;949982;147;27387;-76
2023/09/06 06:20:10;;;;;;;3.35;2.65;;;30.20;74.10;;;;;;939943;151;27290;-76
2023/09/06 06:22:38;;;;;;;2.95;2.75;;;30.80;71.60;;;;;;939453;148;27424;-76
2023/09/06 06:25:02;;;;;;;3.90;3.35;;;31.30;69.90;;;;;;938923;148;27434;-77
2023/09/06 06:27:29;;;;;;;4.28;3.02;;;31.80;68.20;;;;;;941258;148;27980;-76
2023/09/06 06:29:55;;;;;;;3.72;2.95;;;32.20;66.70;;;;;;939085;151;27315;-76
2023/09/06 06:32:22;;;;;;;3.62;3.25;;;32.70;65.20;;;;;;935861;149;27388;-76
2023/09/06 06:34:51;;;;;;;3.98;3.15;;;33.20;63.80;;;;;;951144;147;27345;-76
2023/09/06 06:37:15;;;;;;;3.27;2.98;;;33.60;62.30;;;;;;951231;147;26288;-76
2023/09/06 06:39:42;;;;;;;2.72;2.52;;;34.00;61.10;;;;;;950738;147;26305;-76
2023/09/06 06:42:08;;;;;;;4.03;2.87;;;34.40;59.90;;;;;;940070;151;27298;-76
2023/09/06 06:44:35;;;;;;;3.10;2.80;;;34.80;59.00;;;;;;941230;151;26346;-76
2023/09/06 06:47:01;;;;;;;2.83;2.60;;;35.30;58.30;;;;;;939609;148;26339;-74
2023/09/06 06:49:28;;;;;;;2.92;2.65;;;35.70;57.50;;;;;;939492;151;26259;-74
2023/09/06 06:51:55;;;;;;;3.70;2.90;;;36.10;56.80;;;;;;939967;151;26204;-74
2023/09/06 06:54:21;;;;;;;5.15;2.92;;;36.50;56.10;;;;;;940515;148;26230;-74
2023/09/06 06:56:48;;;;;;;2.95;2.75;;;36.90;55.20;;;;;;935661;149;26291;-74
2023/09/06 06:59:14;;;;;;;5.97;2.98;;;37.30;54.50;;;;;;935442;149;27378;-74
2023/09/06 07:01:41;;;;;;;3.17;2.75;;;37.60;53.70;;;;;;951862;147;26310;-74
2023/09/06 07:04:08;;;;;;;6.75;2.72;;;38.00;53.00;;;;;;934566;149;26381;-74
2023/09/06 07:06:35;;;;;;;3.40;3.10;;;38.30;52.20;;;;;;934315;149;26743;-74
2023/09/06 07:09:03;;;;;;;3.55;2.87;;;38.70;51.50;;;;;;951005;147;26380;-74
2023/09/06 07:11:27;;;;;;;5.15;3.02;;;39.00;50.90;;;;;;948931;147;26225;-74
2023/09/06 07:13:54;;;;;;;3.22;2.92;;;39.30;50.10;;;;;;935492;149;26346;-74
2023/09/06 07:16:20;;;;;;;3.20;2.70;;;39.60;49.40;;;;;;938932;148;26324;-74
2023/09/06 07:18:47;;;;;;;3.00;2.80;;;40.00;48.90;;;;;;935272;149;26276;-74
2023/09/06 07:21:14;;;;;;;4.22;2.92;;;40.20;48.10;;;;;;950246;147;26286;-74
2023/09/06 07:23:40;;;;;;;3.05;2.77;;;40.50;47.50;;;;;;949656;147;26205;-75
2023/09/06 07:26:07;;;;;;;3.05;2.75;;;40.70;47.00;;;;;;950865;147;26247;-74
2023/09/06 07:28:39;;;;;;;2.95;2.65;;;40.90;46.60;;;;;;950355;147;26294;-75
2023/09/06 07:31:05;;;;;;;3.60;2.80;;;41.20;46.10;;;;;;935595;148;26328;-74
2023/09/06 07:33:32;;;;;;;2.60;2.40;;;41.50;45.60;;;;;;935949;149;26274;-74
2023/09/06 07:35:59;;;;;;;3.10;2.80;;;41.80;45.00;;;;;;935649;149;26266;-75
2023/09/06 07:38:25;;;;;;;2.92;2.50;;;42.00;44.20;;;;;;935773;149;26400;-74
2023/09/06 07:41:01;;;;;;;2.52;2.33;;;42.30;43.80;;;;;;935620;149;26325;-74
2023/09/06 07:43:28;;;;;;;3.17;2.20;;;42.40;43.20;;;;;;938826;149;26222;-74
2023/09/06 07:45:54;;;;;;;3.80;1.87;;;42.70;42.60;;;;;;934811;149;26780;-75
2023/09/06 07:48:20;;;;;;;3.55;2.20;;;42.90;42.20;;;;;;935904;149;26281;-74
2023/09/06 07:50:48;;;;;;;2.50;2.30;;;43.10;41.70;;;;;;933749;149;26374;-75
2023/09/06 07:53:14;;;;;;;2.08;1.87;;;43.40;41.10;;;;;;934035;149;26286;-74
2023/09/06 07:55:40;;;;;;;2.65;1.98;;;43.60;40.80;;;;;;934836;149;26229;-74
2023/09/06 07:58:08;;;;;;;2.70;2.50;;;43.80;40.50;;;;;;935566;149;26362;-74
2023/09/06 08:00:36;;;;;;;2.95;2.27;;;44.00;39.70;;;;;;936133;149;26358;-74
2023/09/06 08:03:00;;;;;;;2.77;2.37;;;44.20;39.40;;;;;;936284;149;26245;-75
2023/09/06 08:05:27;;;;;;;3.15;2.50;;;44.40;38.90;;;;;;935268;149;26313;-74
2023/09/06 08:07:53;;;;;;;2.52;2.33;;;44.50;38.40;;;;;;935274;149;26343;-74
2023/09/06 08:10:21;;;;;;;2.62;2.20;;;44.70;38.20;;;;;;935322;149;26356;-74
2023/09/06 08:12:46;;;;;;;2.47;2.27;;;44.80;37.90;;;;;;934284;149;26250;-74
2023/09/06 08:15:13;;;;;;;2.33;2.00;;;45.00;37.50;;;;;;936329;149;26332;-74
2023/09/06 08:17:39;;;;;;;3.00;2.58;;;45.20;37.40;;;;;;935703;149;26306;-74
2023/09/06 08:20:08;;;;;;;2.85;2.55;;;45.40;37.00;;;;;;935379;149;26254;-74
2023/09/06 08:22:35;;;;;;;3.87;2.47;;;45.60;36.60;;;;;;935111;149;26288;-74
2023/09/06 08:24:59;;;;;;;2.50;2.30;;;45.80;36.10;;;;;;933980;149;26258;-75
2023/09/06 08:27:26;;;;;;;2.42;2.22;;;45.90;35.90;;;;;;935168;149;26398;-75
2023/09/06 08:29:52;;;;;;;2.40;2.20;;;46.00;35.50;;;;;;936003;149;26309;-75
2023/09/06 08:32:19;;;;;;;2.20;2.10;;;46.20;35.00;;;;;;937126;149;26301;-74
2023/09/06 08:34:46;;;;;;;2.12;2.00;;;46.20;34.30;;;;;;936184;149;26265;-75
2023/09/06 08:37:12;;;;;;;2.15;1.95;;;46.20;34.00;;;;;;938014;149;26341;-75
2023/09/06 08:39:39;;;;;;;2.08;1.87;;;46.20;33.60;;;;;;937153;149;26252;-75
2023/09/06 08:42:06;;;;;;;2.20;2.00;;;46.20;33.60;;;;;;907949;154;26360;-74
2023/09/06 08:44:32;;;;;;;2.50;2.30;;;46.20;33.50;;;;;;942675;148;26685;-74
2023/09/06 08:46:59;;;;;;;2.25;2.05;;;46.20;33.30;;;;;;940661;148;26281;-75
2023/09/06 08:49:25;;;;;;;2.12;2.00;;;46.20;33.70;;;;;;909793;153;26792;-74
2023/09/06 08:51:52;;;;;;;2.60;2.20;;;46.20;33.10;;;;;;942478;148;26354;-74
2023/09/06 08:54:18;;;;;;;2.02;1.92;;;46.20;33.00;;;;;;939921;148;26284;-74
2023/09/06 08:56:45;;;;;;;2.60;2.02;;;46.20;32.70;;;;;;940248;148;26677;-77
2023/09/06 08:59:12;;;;;;;2.05;1.95;;;46.30;32.70;;;;;;909569;154;26280;-77
2023/09/06 09:01:38;;;;;;;2.00;1.90;;;46.40;32.50;;;;;;938387;148;26232;-78
2023/09/06 09:04:05;;;;;;;2.10;2.00;;;46.60;32.20;;;;;;939263;148;26642;-77
2023/09/06 09:06:31;;;;;;;2.10;2.00;;;46.70;31.90;;;;;;940150;148;26382;-74
2023/09/06 09:08:58;;;;;;;2.22;2.00;;;46.80;31.60;;;;;;940094;148;26313;-77
2023/09/06 09:11:24;;;;;;;2.02;1.92;;;46.80;31.20;;;;;;938132;148;26358;-76
2023/09/06 09:13:51;;;;;;;2.10;2.00;;;46.70;31.20;;;;;;906577;153;26382;-77
2023/09/06 09:16:18;;;;;;;1.85;1.75;;;46.70;31.00;;;;;;906460;153;26331;-78
2023/09/06 09:18:44;;;;;;;2.20;2.00;;;46.60;30.50;;;;;;939351;148;26316;-79
2023/09/06 09:21:11;;;;;;;2.30;2.12;;;46.50;30.50;;;;;;937607;148;26281;-77
2023/09/06 09:23:44;;;;;;;2.37;1.80;;;46.40;30.50;;;;;;908137;153;26448;-76
2023/09/06 09:26:10;;;;;;;2.05;1.85;;;46.20;30.40;;;;;;939954;148;26650;-79
2023/09/06 09:28:37;;;;;;;1.95;1.85;;;46.10;30.20;;;;;;939552;148;26410;-78
2023/09/06 09:31:05;;;;;;;1.70;1.60;;;45.90;29.80;;;;;;912078;151;26396;-78
2023/09/06 09:33:30;;;;;;;1.85;1.75;;;45.70;29.60;;;;;;935131;148;26237;-78
2023/09/06 09:35:56;;;;;;;2.05;1.95;;;45.40;29.50;;;;;;936055;148;26219;-75
2023/09/06 09:38:23;;;;;;;1.72;1.62;;;45.10;29.40;;;;;;933688;149;26289;-77
2023/09/06 09:41:08;;;;;;;1.70;1.60;;;44.70;29.60;;;;;;933922;149;26258;-78
2023/09/06 09:43:35;;;;;;;2.00;1.80;;;44.30;29.50;;;;;;936696;149;26213;-78
2023/09/06 09:46:01;;;;;;;1.98;1.87;;;44.00;29.40;;;;;;936471;149;26354;-78
2023/09/06 09:48:30;;;;;;;2.02;1.90;;;43.60;29.70;;;;;;935877;149;26292;-75
2023/09/06 09:50:57;;;;;;;2.80;2.17;;;43.10;29.60;;;;;;934884;149;27284;-77
2023/09/06 09:53:24;;;;;;;2.12;1.98;;;42.60;30.20;;;;;;933845;149;26321;-78
2023/09/06 09:55:50;;;;;;;2.10;1.87;;;42.10;30.00;;;;;;927614;150;26253;-78
2023/09/06 09:58:19;;;;;;;2.22;2.12;;;41.60;30.70;;;;;;928300;150;26282;-78
2023/09/06 10:00:46;;;;;;;1.90;1.80;;;41.00;30.40;;;;;;928403;150;26400;-78
2023/09/06 10:03:13;;;;;;;2.47;1.87;;;40.50;30.90;;;;;;925744;150;26789;-78
2023/09/06 10:05:39;;;;;;;2.30;2.20;;;39.90;30.90;;;;;;927675;150;26322;-75
2023/09/06 10:08:06;;;;;;;2.75;2.10;;;39.40;31.00;;;;;;919751;150;26359;-75
2023/09/06 10:10:33;;;;;;;2.30;2.10;;;38.90;31.30;;;;;;935244;148;26335;-75
2023/09/06 10:13:04;;;;;;;5.35;2.25;;;38.50;31.60;;;;;;938674;149;26250;-75
2023/09/06 10:15:25;;;;;;;2.77;2.12;;;38.00;31.60;;;;;;950460;145;26347;-75
2023/09/06 10:17:52;;;;;;;3.35;2.33;;;37.50;32.00;;;;;;953802;145;27447;-75
2023/09/06 10:20:23;;;;;;;2.35;2.17;;;37.10;32.20;;;;;;954030;145;27364;-75
2023/09/06 10:22:48;;;;;;;2.98;2.30;;;36.70;32.50;;;;;;952514;145;27365;-75
2023/09/06 10:25:12;;;;;;;2.22;2.12;;;36.30;32.70;;;;;;955178;145;27320;-75
2023/09/06 10:27:53;;;;;;;2.50;2.30;;;35.80;33.00;;;;;;954857;145;27811;-75
2023/09/06 10:30:28;;;;;;;2.25;2.15;;;35.40;33.30;;;;;;951708;143;27412;-75
2023/09/06 10:32:49;;;;;;;2.10;1.90;;;35.00;33.60;;;;;;952878;144;27370;-74
2023/09/06 10:35:25;;;;;;;2.42;2.22;;;34.50;33.90;;;;;;958870;144;27476;-75
2023/09/06 10:38:07;;;;;;;3.33;2.42;;;34.20;34.30;;;;;;958753;144;27309;-75
2023/09/06 10:40:51;;;;;;;2.22;1.95;;;33.70;34.50;;;;;;955670;144;27369;-75
2023/09/06 10:43:22;;;;;;;3.17;2.50;;;33.40;34.80;;;;;;956837;144;27335;-74
2023/09/06 10:46:08;;;;;;;2.60;2.40;;;33.00;35.20;;;;;;958792;144;27286;-74
2023/09/06 10:48:35;;;;;;;2.52;2.33;;;32.70;35.40;;;;;;958946;144;27295;-75
2023/09/06 10:51:08;;;;;;;2.90;2.70;;;32.40;35.70;;;;;;957986;144;27299;-75
2023/09/06 10:53:34;;;;;;;2.42;2.27;;;32.10;36.10;;;;;;958061;144;27411;-75
2023/09/06 10:56:02;;;;;;;2.40;2.20;;;31.90;36.40;;;;;;957660;144;27292;-77
2023/09/06 10:58:28;;;;;;;3.22;2.40;;;31.70;36.60;;;;;;958840;144;27372;-76
2023/09/06 11:01:18;;;;;;;2.58;2.37;;;31.50;37.10;;;;;;960089;144;27298;-77
2023/09/06 11:03:48;;;;;;;2.35;2.10;;;31.30;37.30;;;;;;958165;144;27411;-76
2023/09/06 11:06:14;;;;;;;2.33;2.12;;;31.10;37.60;;;;;;959043;144;27375;-76
2023/09/06 11:08:41;;;;;;;2.42;2.22;;;31.00;38.00;;;;;;956883;144;27311;-76
2023/09/06 11:11:09;;;;;;;2.42;2.22;;;30.90;38.30;;;;;;958600;144;27409;-76
2023/09/06 11:13:34;;;;;;;2.05;1.92;;;30.80;38.60;;;;;;959092;144;27438;-76
2023/09/06 11:16:00;;;;;;;2.60;2.25;;;30.70;38.70;;;;;;958866;144;28682;-76
2023/09/06 11:18:27;;;;;;;2.33;2.20;;;30.70;38.80;;;;;;961077;144;27321;-76
2023/09/06 11:20:54;;;;;;;2.25;1.95;;;30.70;39.00;;;;;;960622;144;28057;-75
2023/09/06 11:23:20;;;;;;;3.25;2.45;;;30.60;39.00;;;;;;940488;149;27371;-76
2023/09/06 11:25:47;;;;;;;2.40;2.22;;;30.60;39.20;;;;;;939236;149;27396;-78
2023/09/06 11:28:19;;;;;;;2.50;2.30;;;30.60;39.30;;;;;;940130;149;27417;-80
2023/09/06 11:30:44;;;;;;;2.80;2.60;;;30.60;39.60;;;;;;939188;149;27476;-79
2023/09/06 11:33:11;;;;;;;3.10;2.90;;;30.60;39.60;;;;;;934915;149;27471;-76
2023/09/06 11:35:38;;;;;;;2.55;2.35;;;30.60;39.60;;;;;;936473;149;27451;-78
2023/09/06 11:38:02;;;;;;;2.50;2.30;;;30.60;39.80;;;;;;936529;149;27334;-79
2023/09/06 11:40:31;;;;;;;2.33;2.15;;;30.60;39.70;;;;;;934642;149;27802;-79
2023/09/06 11:42:56;;;;;;;7.90;2.90;;;30.60;39.70;;;;;;934771;149;27442;-79
2023/09/06 11:45:22;;;;;;;2.05;1.95;;;30.60;39.80;;;;;;935641;149;27850;-77
2023/09/06 11:47:49;;;;;;;2.10;2.00;;;30.60;40.00;;;;;;935772;149;27390;-79
2023/09/06 11:50:19;;;;;;;2.67;2.47;;;30.60;40.10;;;;;;951685;145;27322;-79
2023/09/06 11:52:45;;;;;;;2.65;2.30;;;30.60;40.30;;;;;;951830;145;27429;-78
2023/09/06 11:55:09;;;;;;;2.62;2.42;;;30.60;40.20;;;;;;950933;145;27328;-76
2023/09/06 11:57:38;;;;;;;2.37;2.17;;;30.60;40.00;;;;;;952207;145;27409;-79
2023/09/06 12:00:17;;;;;;;2.20;2.10;;;30.60;40.00;;;;;;952218;145;27338;-79
2023/09/06 12:02:34;;;;;;;2.70;2.50;;;30.60;40.00;;;;;;949580;145;27308;-76
2023/09/06 12:05:03;;;;;;;2.40;2.20;;;30.60;40.10;;;;;;952927;145;27336;-78
2023/09/06 12:07:27;;;;;;;3.50;2.62;;;30.50;40.20;;;;;;952210;145;27352;-79
2023/09/06 12:09:54;;;;;;;2.30;2.20;;;30.50;40.30;;;;;;952616;145;27361;-79
2023/09/06 12:12:21;;;;;;;2.10;2.00;;;30.50;40.30;;;;;;918057;151;27450;-80
2023/09/06 12:14:47;;;;;;;2.22;2.12;;;30.50;40.60;;;;;;917270;151;27337;-79
2023/09/06 12:17:14;;;;;;;4.90;2.47;;;30.50;40.30;;;;;;934532;148;27823;-80
2023/09/06 12:19:41;;;;;;;2.60;2.40;;;30.50;40.40;;;;;;934628;148;27512;-79
2023/09/06 12:22:07;;;;;;;2.27;2.17;;;30.50;40.40;;;;;;916872;151;27343;-78
2023/09/06 12:24:33;;;;;;;2.00;1.90;;;30.50;40.20;;;;;;915269;152;27385;-80
2023/09/06 12:27:00;;;;;;;2.50;2.27;;;30.50;40.00;;;;;;934042;148;27459;-76
2023/09/06 12:29:27;;;;;;;2.17;2.02;;;30.60;40.10;;;;;;953667;145;27324;-79
2023/09/06 12:31:53;;;;;;;2.90;2.70;;;30.50;40.80;;;;;;953188;145;27291;-80
2023/09/06 12:34:21;;;;;;;2.67;2.47;;;30.50;40.30;;;;;;918632;151;27418;-79
2023/09/06 12:36:46;;;;;;;2.58;2.37;;;30.60;40.30;;;;;;934916;148;27518;-76
2023/09/06 12:39:13;;;;;;;2.60;2.40;;;30.50;40.30;;;;;;937757;149;27365;-76
2023/09/06 12:41:39;;;;;;;2.33;2.12;;;30.50;40.20;;;;;;934803;149;27843;-76
2023/09/06 12:44:06;;;;;;;2.33;1.95;;;30.50;40.30;;;;;;937768;149;27370;-76
2023/09/06 12:46:33;;;;;;;2.55;2.12;;;30.50;40.30;;;;;;935394;149;27351;-76
2023/09/06 12:48:59;;;;;;;2.27;2.05;;;30.50;40.30;;;;;;936649;149;27832;-76